sensor_id;sensor_type;location;lat;lon;timestamp;P1;durP1;ratioP1;P2;durP2;ratioP2
11123;SDS011;5616;42.692;23.312;2022-10-16T00:00:41;11.50;;;8.70;;
11123;SDS011;5616;42.692;23.312;2022-10-16T00:03:08;11.00;;;7.97;;
11123;SDS011;5616;42.692;23.312;2022-10-16T00:05:40;9.73;;;8.10;;
11123;SDS011;5616;42.692;23.312;2022-10-16T00:08:08;9.07;;;7.67;;
11123;SDS011;5616;42.692;23.312;2022-10-16T00:10:35;13.10;;;8.13;;
11123;SDS011;5616;42.692;23.312;2022-10-16T00:13:02;12.40;;;8.80;;
11123;SDS011;5616;42.692;23.312;2022-10-16T00:15:31;16.30;;;8.63;;
11123;SDS011;5616;42.692;23.312;2022-10-16T00:18:02;11.77;;;8.27;;
11123;SDS011;5616;42.692;23.312;2022-10-16T00:20:30;12.53;;;8.20;;
11123;SDS011;5616;42.692;23.312;2022-10-16T00:23:02;13.13;;;8.57;;
11123;SDS011;5616;42.692;23.312;2022-10-16T00:25:29;10.53;;;8.17;;
11123;SDS011;5616;42.692;23.312;2022-10-16T00:27:57;9.13;;;7.27;;
11123;SDS011;5616;42.692;23.312;2022-10-16T00:30:24;10.77;;;7.53;;
11123;SDS011;5616;42.692;23.312;2022-10-16T00:32:53;10.70;;;8.40;;
11123;SDS011;5616;42.692;23.312;2022-10-16T00:35:21;12.70;;;8.00;;
11123;SDS011;5616;42.692;23.312;2022-10-16T00:37:48;9.23;;;7.57;;
11123;SDS011;5616;42.692;23.312;2022-10-16T00:40:15;10.60;;;7.50;;
11123;SDS011;5616;42.692;23.312;2022-10-16T00:42:42;10.50;;;7.57;;
11123;SDS011;5616;42.692;23.312;2022-10-16T00:45:09;8.43;;;7.50;;
11123;SDS011;5616;42.692;23.312;2022-10-16T00:47:37;9.73;;;7.27;;
11123;SDS011;5616;42.692;23.312;2022-10-16T00:50:07;11.23;;;7.77;;
11123;SDS011;5616;42.692;23.312;2022-10-16T00:52:38;9.20;;;7.50;;
11123;SDS011;5616;42.692;23.312;2022-10-16T00:55:09;10.90;;;7.03;;
11123;SDS011;5616;42.692;23.312;2022-10-16T00:57:36;8.93;;;6.73;;
11123;SDS011;5616;42.692;23.312;2022-10-16T01:00:05;10.53;;;7.50;;
11123;SDS011;5616;42.692;23.312;2022-10-16T01:02:35;8.00;;;7.13;;
11123;SDS011;5616;42.692;23.312;2022-10-16T01:05:02;10.43;;;7.67;;
11123;SDS011;5616;42.692;23.312;2022-10-16T01:07:33;8.27;;;7.20;;
11123;SDS011;5616;42.692;23.312;2022-10-16T01:10:11;8.93;;;7.10;;
11123;SDS011;5616;42.692;23.312;2022-10-16T01:12:50;9.87;;;7.37;;
11123;SDS011;5616;42.692;23.312;2022-10-16T01:15:22;9.13;;;6.80;;
11123;SDS011;5616;42.692;23.312;2022-10-16T01:17:53;8.70;;;6.87;;
11123;SDS011;5616;42.692;23.312;2022-10-16T01:20:27;11.03;;;7.83;;
11123;SDS011;5616;42.692;23.312;2022-10-16T01:23:01;11.23;;;7.43;;
11123;SDS011;5616;42.692;23.312;2022-10-16T01:25:39;8.10;;;6.87;;
11123;SDS011;5616;42.692;23.312;2022-10-16T01:28:38;7.37;;;6.67;;
11123;SDS011;5616;42.692;23.312;2022-10-16T01:31:11;13.03;;;7.50;;
11123;SDS011;5616;42.692;23.312;2022-10-16T01:33:43;11.60;;;7.47;;
11123;SDS011;5616;42.692;23.312;2022-10-16T01:36:14;10.90;;;7.10;;
11123;SDS011;5616;42.692;23.312;2022-10-16T01:38:45;8.67;;;7.17;;
11123;SDS011;5616;42.692;23.312;2022-10-16T01:41:14;9.33;;;7.50;;
11123;SDS011;5616;42.692;23.312;2022-10-16T01:43:47;8.63;;;7.00;;
11123;SDS011;5616;42.692;23.312;2022-10-16T01:46:19;11.23;;;7.53;;
11123;SDS011;5616;42.692;23.312;2022-10-16T01:48:49;9.30;;;7.03;;
11123;SDS011;5616;42.692;23.312;2022-10-16T01:51:17;9.93;;;7.23;;
11123;SDS011;5616;42.692;23.312;2022-10-16T01:53:48;11.90;;;7.47;;
11123;SDS011;5616;42.692;23.312;2022-10-16T01:56:18;10.73;;;6.90;;
11123;SDS011;5616;42.692;23.312;2022-10-16T01:58:50;7.87;;;6.73;;
11123;SDS011;5616;42.692;23.312;2022-10-16T02:01:21;11.13;;;7.33;;
11123;SDS011;5616;42.692;23.312;2022-10-16T02:03:52;9.03;;;6.93;;
11123;SDS011;5616;42.692;23.312;2022-10-16T02:06:22;11.93;;;7.07;;
11123;SDS011;5616;42.692;23.312;2022-10-16T02:08:50;8.40;;;6.70;;
11123;SDS011;5616;42.692;23.312;2022-10-16T02:11:17;11.60;;;6.90;;
11123;SDS011;5616;42.692;23.312;2022-10-16T02:13:44;10.53;;;7.37;;
11123;SDS011;5616;42.692;23.312;2022-10-16T02:16:15;7.00;;;6.23;;
11123;SDS011;5616;42.692;23.312;2022-10-16T02:18:42;8.32;;;7.03;;
11123;SDS011;5616;42.692;23.312;2022-10-16T02:21:12;7.97;;;6.43;;
11123;SDS011;5616;42.692;23.312;2022-10-16T02:23:45;8.07;;;6.53;;
11123;SDS011;5616;42.692;23.312;2022-10-16T02:26:19;8.50;;;7.13;;
11123;SDS011;5616;42.692;23.312;2022-10-16T02:28:53;10.07;;;7.27;;
11123;SDS011;5616;42.692;23.312;2022-10-16T02:31:27;7.70;;;6.90;;
11123;SDS011;5616;42.692;23.312;2022-10-16T02:33:59;7.90;;;6.40;;
11123;SDS011;5616;42.692;23.312;2022-10-16T02:36:27;10.60;;;6.53;;
11123;SDS011;5616;42.692;23.312;2022-10-16T02:38:55;8.57;;;6.57;;
11123;SDS011;5616;42.692;23.312;2022-10-16T02:41:22;9.03;;;6.40;;
11123;SDS011;5616;42.692;23.312;2022-10-16T02:43:50;9.63;;;6.23;;
11123;SDS011;5616;42.692;23.312;2022-10-16T02:46:16;8.83;;;6.27;;
11123;SDS011;5616;42.692;23.312;2022-10-16T02:48:46;7.90;;;6.63;;
11123;SDS011;5616;42.692;23.312;2022-10-16T02:51:12;10.97;;;6.70;;
11123;SDS011;5616;42.692;23.312;2022-10-16T02:53:39;10.67;;;7.20;;
11123;SDS011;5616;42.692;23.312;2022-10-16T02:56:06;9.80;;;6.73;;
11123;SDS011;5616;42.692;23.312;2022-10-16T02:58:33;11.40;;;7.20;;
11123;SDS011;5616;42.692;23.312;2022-10-16T03:01:00;9.73;;;6.93;;
11123;SDS011;5616;42.692;23.312;2022-10-16T03:03:27;11.43;;;6.97;;
11123;SDS011;5616;42.692;23.312;2022-10-16T03:05:55;8.50;;;6.83;;
11123;SDS011;5616;42.692;23.312;2022-10-16T03:08:22;7.70;;;6.60;;
11123;SDS011;5616;42.692;23.312;2022-10-16T03:10:50;9.80;;;7.17;;
11123;SDS011;5616;42.692;23.312;2022-10-16T03:13:17;10.27;;;7.77;;
11123;SDS011;5616;42.692;23.312;2022-10-16T03:15:45;11.97;;;8.20;;
11123;SDS011;5616;42.692;23.312;2022-10-16T03:18:12;9.90;;;7.47;;
11123;SDS011;5616;42.692;23.312;2022-10-16T03:20:39;12.93;;;8.47;;
11123;SDS011;5616;42.692;23.312;2022-10-16T03:23:07;12.90;;;8.23;;
11123;SDS011;5616;42.692;23.312;2022-10-16T03:25:34;10.07;;;8.03;;
11123;SDS011;5616;42.692;23.312;2022-10-16T03:28:01;10.07;;;8.00;;
11123;SDS011;5616;42.692;23.312;2022-10-16T03:30:28;10.97;;;8.60;;
11123;SDS011;5616;42.692;23.312;2022-10-16T03:32:55;11.37;;;7.50;;
11123;SDS011;5616;42.692;23.312;2022-10-16T03:35:22;11.77;;;7.83;;
11123;SDS011;5616;42.692;23.312;2022-10-16T03:37:50;11.53;;;7.57;;
11123;SDS011;5616;42.692;23.312;2022-10-16T03:40:19;10.97;;;8.10;;
11123;SDS011;5616;42.692;23.312;2022-10-16T03:42:45;12.33;;;8.10;;
11123;SDS011;5616;42.692;23.312;2022-10-16T03:45:12;10.27;;;7.70;;
11123;SDS011;5616;42.692;23.312;2022-10-16T03:47:39;11.43;;;7.57;;
11123;SDS011;5616;42.692;23.312;2022-10-16T03:50:06;13.43;;;8.17;;
11123;SDS011;5616;42.692;23.312;2022-10-16T03:52:34;11.10;;;7.50;;
11123;SDS011;5616;42.692;23.312;2022-10-16T03:55:01;12.33;;;8.70;;
11123;SDS011;5616;42.692;23.312;2022-10-16T03:57:29;10.60;;;7.83;;
11123;SDS011;5616;42.692;23.312;2022-10-16T03:59:56;10.37;;;8.47;;
11123;SDS011;5616;42.692;23.312;2022-10-16T04:02:22;11.13;;;8.57;;
11123;SDS011;5616;42.692;23.312;2022-10-16T04:04:49;11.40;;;8.50;;
11123;SDS011;5616;42.692;23.312;2022-10-16T04:07:16;12.47;;;8.87;;
11123;SDS011;5616;42.692;23.312;2022-10-16T04:09:43;12.10;;;8.77;;
11123;SDS011;5616;42.692;23.312;2022-10-16T04:12:10;13.33;;;8.40;;
11123;SDS011;5616;42.692;23.312;2022-10-16T04:14:38;11.03;;;8.03;;
11123;SDS011;5616;42.692;23.312;2022-10-16T04:17:05;10.20;;;7.50;;
11123;SDS011;5616;42.692;23.312;2022-10-16T04:19:32;9.33;;;7.53;;
11123;SDS011;5616;42.692;23.312;2022-10-16T04:21:58;11.97;;;8.07;;
11123;SDS011;5616;42.692;23.312;2022-10-16T04:24:25;12.10;;;8.10;;
11123;SDS011;5616;42.692;23.312;2022-10-16T04:26:52;10.97;;;8.43;;
11123;SDS011;5616;42.692;23.312;2022-10-16T04:29:19;11.37;;;8.63;;
11123;SDS011;5616;42.692;23.312;2022-10-16T04:31:47;10.50;;;8.20;;
11123;SDS011;5616;42.692;23.312;2022-10-16T04:34:14;11.63;;;7.97;;
11123;SDS011;5616;42.692;23.312;2022-10-16T04:36:41;10.47;;;8.10;;
11123;SDS011;5616;42.692;23.312;2022-10-16T04:39:08;9.13;;;8.07;;
11123;SDS011;5616;42.692;23.312;2022-10-16T04:41:34;12.03;;;8.17;;
11123;SDS011;5616;42.692;23.312;2022-10-16T04:44:01;13.77;;;8.87;;
11123;SDS011;5616;42.692;23.312;2022-10-16T04:46:28;12.97;;;9.07;;
11123;SDS011;5616;42.692;23.312;2022-10-16T04:48:57;12.17;;;8.87;;
11123;SDS011;5616;42.692;23.312;2022-10-16T04:51:24;12.43;;;9.33;;
11123;SDS011;5616;42.692;23.312;2022-10-16T04:53:52;13.07;;;8.90;;
11123;SDS011;5616;42.692;23.312;2022-10-16T04:56:19;10.17;;;8.57;;
11123;SDS011;5616;42.692;23.312;2022-10-16T04:58:46;11.97;;;8.37;;
11123;SDS011;5616;42.692;23.312;2022-10-16T05:01:13;10.80;;;8.60;;
11123;SDS011;5616;42.692;23.312;2022-10-16T05:03:40;12.67;;;9.20;;
11123;SDS011;5616;42.692;23.312;2022-10-16T05:06:08;11.70;;;8.27;;
11123;SDS011;5616;42.692;23.312;2022-10-16T05:08:35;16.53;;;8.10;;
11123;SDS011;5616;42.692;23.312;2022-10-16T05:11:02;14.93;;;7.97;;
11123;SDS011;5616;42.692;23.312;2022-10-16T05:13:29;12.47;;;7.33;;
11123;SDS011;5616;42.692;23.312;2022-10-16T05:15:56;11.03;;;7.50;;
11123;SDS011;5616;42.692;23.312;2022-10-16T05:18:23;9.27;;;7.53;;
11123;SDS011;5616;42.692;23.312;2022-10-16T05:20:50;9.40;;;7.23;;
11123;SDS011;5616;42.692;23.312;2022-10-16T05:23:18;9.47;;;7.07;;
11123;SDS011;5616;42.692;23.312;2022-10-16T05:25:51;9.50;;;6.77;;
11123;SDS011;5616;42.692;23.312;2022-10-16T05:28:19;9.37;;;7.17;;
11123;SDS011;5616;42.692;23.312;2022-10-16T05:30:46;10.57;;;6.73;;
11123;SDS011;5616;42.692;23.312;2022-10-16T05:33:13;8.93;;;6.97;;
11123;SDS011;5616;42.692;23.312;2022-10-16T05:35:39;9.90;;;6.80;;
11123;SDS011;5616;42.692;23.312;2022-10-16T05:38:06;10.43;;;7.43;;
11123;SDS011;5616;42.692;23.312;2022-10-16T05:40:34;10.73;;;7.37;;
11123;SDS011;5616;42.692;23.312;2022-10-16T05:43:01;10.90;;;7.10;;
11123;SDS011;5616;42.692;23.312;2022-10-16T05:45:28;9.63;;;7.57;;
11123;SDS011;5616;42.692;23.312;2022-10-16T05:47:55;13.47;;;7.87;;
11123;SDS011;5616;42.692;23.312;2022-10-16T05:50:22;10.37;;;7.70;;
11123;SDS011;5616;42.692;23.312;2022-10-16T05:52:48;8.87;;;6.90;;
11123;SDS011;5616;42.692;23.312;2022-10-16T05:55:15;14.87;;;7.77;;
11123;SDS011;5616;42.692;23.312;2022-10-16T05:57:43;8.93;;;7.53;;
11123;SDS011;5616;42.692;23.312;2022-10-16T06:00:10;10.17;;;7.00;;
11123;SDS011;5616;42.692;23.312;2022-10-16T06:02:40;11.57;;;7.40;;
11123;SDS011;5616;42.692;23.312;2022-10-16T06:05:07;10.93;;;7.93;;
11123;SDS011;5616;42.692;23.312;2022-10-16T06:07:34;13.70;;;8.07;;
11123;SDS011;5616;42.692;23.312;2022-10-16T06:10:02;8.83;;;7.90;;
11123;SDS011;5616;42.692;23.312;2022-10-16T06:12:29;12.33;;;8.07;;
11123;SDS011;5616;42.692;23.312;2022-10-16T06:14:58;13.73;;;8.37;;
11123;SDS011;5616;42.692;23.312;2022-10-16T06:17:24;11.33;;;7.80;;
11123;SDS011;5616;42.692;23.312;2022-10-16T06:19:51;9.60;;;7.90;;
11123;SDS011;5616;42.692;23.312;2022-10-16T06:22:18;14.40;;;8.27;;
11123;SDS011;5616;42.692;23.312;2022-10-16T06:24:45;10.73;;;8.00;;
11123;SDS011;5616;42.692;23.312;2022-10-16T06:27:12;12.37;;;8.50;;
11123;SDS011;5616;42.692;23.312;2022-10-16T06:29:39;9.30;;;8.30;;
11123;SDS011;5616;42.692;23.312;2022-10-16T06:32:09;9.57;;;7.57;;
11123;SDS011;5616;42.692;23.312;2022-10-16T06:34:36;9.17;;;7.93;;
11123;SDS011;5616;42.692;23.312;2022-10-16T06:37:05;11.87;;;8.20;;
11123;SDS011;5616;42.692;23.312;2022-10-16T06:39:31;10.83;;;8.57;;
11123;SDS011;5616;42.692;23.312;2022-10-16T06:41:58;11.07;;;7.33;;
11123;SDS011;5616;42.692;23.312;2022-10-16T06:44:31;11.80;;;8.00;;
11123;SDS011;5616;42.692;23.312;2022-10-16T06:46:58;8.77;;;7.60;;
11123;SDS011;5616;42.692;23.312;2022-10-16T06:49:26;13.17;;;8.03;;
11123;SDS011;5616;42.692;23.312;2022-10-16T06:51:53;9.70;;;8.47;;
11123;SDS011;5616;42.692;23.312;2022-10-16T06:54:20;11.07;;;9.07;;
11123;SDS011;5616;42.692;23.312;2022-10-16T06:56:47;14.43;;;9.47;;
11123;SDS011;5616;42.692;23.312;2022-10-16T06:59:14;18.07;;;10.00;;
11123;SDS011;5616;42.692;23.312;2022-10-16T07:01:40;11.33;;;10.13;;
11123;SDS011;5616;42.692;23.312;2022-10-16T07:04:07;13.67;;;9.60;;
11123;SDS011;5616;42.692;23.312;2022-10-16T07:06:35;18.13;;;9.20;;
11123;SDS011;5616;42.692;23.312;2022-10-16T07:09:03;11.27;;;8.60;;
11123;SDS011;5616;42.692;23.312;2022-10-16T07:11:31;11.47;;;8.87;;
11123;SDS011;5616;42.692;23.312;2022-10-16T07:13:58;12.07;;;9.33;;
11123;SDS011;5616;42.692;23.312;2022-10-16T07:16:26;9.90;;;8.90;;
11123;SDS011;5616;42.692;23.312;2022-10-16T07:18:54;12.27;;;8.33;;
11123;SDS011;5616;42.692;23.312;2022-10-16T07:21:23;12.13;;;9.40;;
11123;SDS011;5616;42.692;23.312;2022-10-16T07:23:53;10.30;;;8.80;;
11123;SDS011;5616;42.692;23.312;2022-10-16T07:26:21;12.53;;;9.27;;
11123;SDS011;5616;42.692;23.312;2022-10-16T07:28:48;9.83;;;8.63;;
11123;SDS011;5616;42.692;23.312;2022-10-16T07:31:15;11.83;;;9.20;;
11123;SDS011;5616;42.692;23.312;2022-10-16T07:33:45;11.10;;;8.90;;
11123;SDS011;5616;42.692;23.312;2022-10-16T07:36:13;15.87;;;10.13;;
11123;SDS011;5616;42.692;23.312;2022-10-16T07:38:41;13.73;;;10.07;;
11123;SDS011;5616;42.692;23.312;2022-10-16T07:41:10;21.30;;;10.30;;
11123;SDS011;5616;42.692;23.312;2022-10-16T07:43:38;12.07;;;9.57;;
11123;SDS011;5616;42.692;23.312;2022-10-16T07:46:05;14.43;;;9.80;;
11123;SDS011;5616;42.692;23.312;2022-10-16T07:48:33;18.57;;;10.30;;
11123;SDS011;5616;42.692;23.312;2022-10-16T07:51:01;13.80;;;9.87;;
11123;SDS011;5616;42.692;23.312;2022-10-16T07:53:29;17.30;;;9.40;;
11123;SDS011;5616;42.692;23.312;2022-10-16T07:55:57;11.57;;;8.90;;
11123;SDS011;5616;42.692;23.312;2022-10-16T07:58:26;11.43;;;8.00;;
11123;SDS011;5616;42.692;23.312;2022-10-16T08:00:53;9.03;;;7.80;;
11123;SDS011;5616;42.692;23.312;2022-10-16T08:03:20;12.23;;;8.50;;
11123;SDS011;5616;42.692;23.312;2022-10-16T08:05:47;9.33;;;8.07;;
11123;SDS011;5616;42.692;23.312;2022-10-16T08:08:14;11.33;;;8.70;;
11123;SDS011;5616;42.692;23.312;2022-10-16T08:10:42;9.50;;;8.17;;
11123;SDS011;5616;42.692;23.312;2022-10-16T08:13:09;10.53;;;7.90;;
11123;SDS011;5616;42.692;23.312;2022-10-16T08:15:39;7.73;;;6.63;;
11123;SDS011;5616;42.692;23.312;2022-10-16T08:18:06;10.70;;;6.37;;
11123;SDS011;5616;42.692;23.312;2022-10-16T08:20:32;10.33;;;6.33;;
11123;SDS011;5616;42.692;23.312;2022-10-16T08:23:00;10.50;;;6.13;;
11123;SDS011;5616;42.692;23.312;2022-10-16T08:25:27;7.67;;;6.13;;
11123;SDS011;5616;42.692;23.312;2022-10-16T08:27:54;9.80;;;5.87;;
11123;SDS011;5616;42.692;23.312;2022-10-16T08:30:21;6.93;;;5.60;;
11123;SDS011;5616;42.692;23.312;2022-10-16T08:32:50;6.73;;;5.77;;
11123;SDS011;5616;42.692;23.312;2022-10-16T08:35:17;6.63;;;5.63;;
11123;SDS011;5616;42.692;23.312;2022-10-16T08:37:44;6.80;;;5.43;;
11123;SDS011;5616;42.692;23.312;2022-10-16T08:40:15;8.30;;;5.67;;
11123;SDS011;5616;42.692;23.312;2022-10-16T08:42:52;7.47;;;5.80;;
11123;SDS011;5616;42.692;23.312;2022-10-16T08:45:34;8.67;;;5.40;;
11123;SDS011;5616;42.692;23.312;2022-10-16T08:48:14;7.13;;;5.63;;
11123;SDS011;5616;42.692;23.312;2022-10-16T08:50:47;4.90;;;4.40;;
11123;SDS011;5616;42.692;23.312;2022-10-16T08:53:16;7.80;;;5.53;;
11123;SDS011;5616;42.692;23.312;2022-10-16T08:55:49;10.77;;;5.17;;
11123;SDS011;5616;42.692;23.312;2022-10-16T08:58:18;5.83;;;4.67;;
11123;SDS011;5616;42.692;23.312;2022-10-16T09:00:47;5.87;;;5.07;;
11123;SDS011;5616;42.692;23.312;2022-10-16T09:03:27;5.43;;;3.77;;
11123;SDS011;5616;42.692;23.312;2022-10-16T09:06:07;4.80;;;3.53;;
11123;SDS011;5616;42.692;23.312;2022-10-16T09:08:43;4.33;;;3.67;;
11123;SDS011;5616;42.692;23.312;2022-10-16T09:11:21;4.87;;;3.57;;
11123;SDS011;5616;42.692;23.312;2022-10-16T09:13:59;6.93;;;3.37;;
11123;SDS011;5616;42.692;23.312;2022-10-16T09:16:39;3.83;;;3.23;;
11123;SDS011;5616;42.692;23.312;2022-10-16T09:19:13;5.60;;;3.40;;
11123;SDS011;5616;42.692;23.312;2022-10-16T09:21:46;4.50;;;3.50;;
11123;SDS011;5616;42.692;23.312;2022-10-16T09:24:14;5.73;;;3.20;;
11123;SDS011;5616;42.692;23.312;2022-10-16T09:26:43;4.00;;;3.57;;
11123;SDS011;5616;42.692;23.312;2022-10-16T09:29:11;5.57;;;2.97;;
11123;SDS011;5616;42.692;23.312;2022-10-16T09:31:38;3.80;;;3.40;;
11123;SDS011;5616;42.692;23.312;2022-10-16T09:34:06;4.93;;;3.10;;
11123;SDS011;5616;42.692;23.312;2022-10-16T09:36:45;4.00;;;3.27;;
11123;SDS011;5616;42.692;23.312;2022-10-16T09:39:12;6.07;;;3.20;;
11123;SDS011;5616;42.692;23.312;2022-10-16T09:41:40;3.43;;;3.13;;
11123;SDS011;5616;42.692;23.312;2022-10-16T09:44:16;5.70;;;3.10;;
11123;SDS011;5616;42.692;23.312;2022-10-16T09:46:47;3.60;;;3.10;;
11123;SDS011;5616;42.692;23.312;2022-10-16T09:49:21;5.90;;;3.30;;
11123;SDS011;5616;42.692;23.312;2022-10-16T09:51:51;4.17;;;3.53;;
11123;SDS011;5616;42.692;23.312;2022-10-16T09:54:30;7.20;;;3.40;;
11123;SDS011;5616;42.692;23.312;2022-10-16T09:57:03;4.60;;;3.30;;
11123;SDS011;5616;42.692;23.312;2022-10-16T09:59:31;5.37;;;3.37;;
11123;SDS011;5616;42.692;23.312;2022-10-16T10:02:01;4.97;;;3.67;;
11123;SDS011;5616;42.692;23.312;2022-10-16T10:04:37;6.43;;;3.70;;
11123;SDS011;5616;42.692;23.312;2022-10-16T10:07:14;6.43;;;3.60;;
11123;SDS011;5616;42.692;23.312;2022-10-16T10:09:45;4.27;;;3.33;;
11123;SDS011;5616;42.692;23.312;2022-10-16T10:12:17;5.83;;;3.30;;
11123;SDS011;5616;42.692;23.312;2022-10-16T10:14:46;4.53;;;3.30;;
11123;SDS011;5616;42.692;23.312;2022-10-16T10:17:16;4.50;;;3.37;;
11123;SDS011;5616;42.692;23.312;2022-10-16T10:19:46;8.33;;;3.87;;
11123;SDS011;5616;42.692;23.312;2022-10-16T10:22:21;4.50;;;3.50;;
11123;SDS011;5616;42.692;23.312;2022-10-16T10:28:06;7.80;;;3.20;;
11123;SDS011;5616;42.692;23.312;2022-10-16T10:30:50;7.80;;;3.07;;
11123;SDS011;5616;42.692;23.312;2022-10-16T10:33:28;5.63;;;3.57;;
11123;SDS011;5616;42.692;23.312;2022-10-16T10:36:05;4.47;;;3.00;;
11123;SDS011;5616;42.692;23.312;2022-10-16T10:38:46;6.57;;;3.70;;
11123;SDS011;5616;42.692;23.312;2022-10-16T10:44:51;5.80;;;3.13;;
11123;SDS011;5616;42.692;23.312;2022-10-16T10:47:27;4.33;;;3.27;;
11123;SDS011;5616;42.692;23.312;2022-10-16T10:50:07;4.23;;;3.23;;
11123;SDS011;5616;42.692;23.312;2022-10-16T10:52:47;4.93;;;3.10;;
11123;SDS011;5616;42.692;23.312;2022-10-16T10:55:27;4.13;;;3.20;;
11123;SDS011;5616;42.692;23.312;2022-10-16T10:58:20;3.93;;;3.27;;
11123;SDS011;5616;42.692;23.312;2022-10-16T11:01:09;4.73;;;4.07;;
11123;SDS011;5616;42.692;23.312;2022-10-16T11:03:45;7.07;;;3.17;;
11123;SDS011;5616;42.692;23.312;2022-10-16T11:06:24;5.73;;;3.40;;
11123;SDS011;5616;42.692;23.312;2022-10-16T11:08:55;5.33;;;3.43;;
11123;SDS011;5616;42.692;23.312;2022-10-16T11:11:29;3.63;;;2.97;;
11123;SDS011;5616;42.692;23.312;2022-10-16T11:14:02;4.57;;;3.23;;
11123;SDS011;5616;42.692;23.312;2022-10-16T11:16:33;7.10;;;2.90;;
11123;SDS011;5616;42.692;23.312;2022-10-16T11:19:04;4.17;;;3.23;;
11123;SDS011;5616;42.692;23.312;2022-10-16T11:21:39;5.37;;;2.80;;
11123;SDS011;5616;42.692;23.312;2022-10-16T11:24:14;3.90;;;3.40;;
11123;SDS011;5616;42.692;23.312;2022-10-16T11:26:48;4.50;;;3.73;;
11123;SDS011;5616;42.692;23.312;2022-10-16T11:29:19;5.80;;;3.63;;
11123;SDS011;5616;42.692;23.312;2022-10-16T11:31:52;5.23;;;3.30;;
11123;SDS011;5616;42.692;23.312;2022-10-16T11:34:24;4.33;;;3.20;;
11123;SDS011;5616;42.692;23.312;2022-10-16T11:36:56;4.23;;;2.70;;
11123;SDS011;5616;42.692;23.312;2022-10-16T11:39:28;4.67;;;3.17;;
11123;SDS011;5616;42.692;23.312;2022-10-16T11:41:59;5.80;;;3.27;;
11123;SDS011;5616;42.692;23.312;2022-10-16T11:44:38;5.60;;;3.13;;
11123;SDS011;5616;42.692;23.312;2022-10-16T11:47:23;4.03;;;3.60;;
11123;SDS011;5616;42.692;23.312;2022-10-16T11:49:57;4.03;;;3.60;;
11123;SDS011;5616;42.692;23.312;2022-10-16T11:52:28;4.50;;;3.10;;
11123;SDS011;5616;42.692;23.312;2022-10-16T11:55:02;3.97;;;2.93;;
11123;SDS011;5616;42.692;23.312;2022-10-16T11:57:33;4.47;;;2.93;;
11123;SDS011;5616;42.692;23.312;2022-10-16T12:00:09;3.00;;;2.77;;
11123;SDS011;5616;42.692;23.312;2022-10-16T12:02:52;2.90;;;2.50;;
11123;SDS011;5616;42.692;23.312;2022-10-16T12:05:28;3.13;;;2.70;;
11123;SDS011;5616;42.692;23.312;2022-10-16T12:08:07;7.90;;;3.10;;
11123;SDS011;5616;42.692;23.312;2022-10-16T12:10:37;4.23;;;2.97;;
11123;SDS011;5616;42.692;23.312;2022-10-16T12:16:03;7.27;;;3.50;;
11123;SDS011;5616;42.692;23.312;2022-10-16T12:18:31;5.80;;;4.00;;
11123;SDS011;5616;42.692;23.312;2022-10-16T12:20:58;4.63;;;2.90;;
11123;SDS011;5616;42.692;23.312;2022-10-16T12:23:30;7.17;;;3.20;;
11123;SDS011;5616;42.692;23.312;2022-10-16T12:25:58;5.13;;;3.30;;
11123;SDS011;5616;42.692;23.312;2022-10-16T12:28:29;4.37;;;3.00;;
11123;SDS011;5616;42.692;23.312;2022-10-16T12:30:58;5.10;;;3.13;;
11123;SDS011;5616;42.692;23.312;2022-10-16T12:33:28;4.70;;;2.90;;
11123;SDS011;5616;42.692;23.312;2022-10-16T12:35:56;4.40;;;2.67;;
11123;SDS011;5616;42.692;23.312;2022-10-16T12:38:25;3.00;;;2.50;;
11123;SDS011;5616;42.692;23.312;2022-10-16T12:40:55;3.57;;;2.60;;
11123;SDS011;5616;42.692;23.312;2022-10-16T12:43:26;3.00;;;2.53;;
11123;SDS011;5616;42.692;23.312;2022-10-16T12:46:03;4.50;;;3.33;;
11123;SDS011;5616;42.692;23.312;2022-10-16T12:48:47;5.23;;;3.00;;
11123;SDS011;5616;42.692;23.312;2022-10-16T12:51:23;4.77;;;3.13;;
11123;SDS011;5616;42.692;23.312;2022-10-16T12:53:58;3.40;;;3.10;;
11123;SDS011;5616;42.692;23.312;2022-10-16T12:56:27;4.43;;;3.10;;
11123;SDS011;5616;42.692;23.312;2022-10-16T12:59:08;5.90;;;3.53;;
11123;SDS011;5616;42.692;23.312;2022-10-16T13:01:47;3.40;;;2.90;;
11123;SDS011;5616;42.692;23.312;2022-10-16T13:07:16;2.93;;;2.53;;
11123;SDS011;5616;42.692;23.312;2022-10-16T13:09:59;2.90;;;2.70;;
11123;SDS011;5616;42.692;23.312;2022-10-16T13:12:40;5.10;;;2.70;;
11123;SDS011;5616;42.692;23.312;2022-10-16T13:15:37;4.13;;;2.90;;
11123;SDS011;5616;42.692;23.312;2022-10-16T13:18:15;3.73;;;2.80;;
11123;SDS011;5616;42.692;23.312;2022-10-16T13:20:53;4.27;;;2.83;;
11123;SDS011;5616;42.692;23.312;2022-10-16T13:23:29;4.93;;;2.60;;
11123;SDS011;5616;42.692;23.312;2022-10-16T13:26:06;2.70;;;2.43;;
11123;SDS011;5616;42.692;23.312;2022-10-16T13:28:40;5.23;;;2.90;;
11123;SDS011;5616;42.692;23.312;2022-10-16T13:31:11;4.10;;;2.70;;
11123;SDS011;5616;42.692;23.312;2022-10-16T13:33:43;3.40;;;2.57;;
11123;SDS011;5616;42.692;23.312;2022-10-16T13:36:19;4.43;;;2.80;;
11123;SDS011;5616;42.692;23.312;2022-10-16T13:38:47;8.47;;;2.70;;
11123;SDS011;5616;42.692;23.312;2022-10-16T13:41:14;3.67;;;2.70;;
11123;SDS011;5616;42.692;23.312;2022-10-16T13:43:44;4.33;;;2.50;;
11123;SDS011;5616;42.692;23.312;2022-10-16T13:46:15;3.80;;;2.70;;
11123;SDS011;5616;42.692;23.312;2022-10-16T13:48:42;5.87;;;2.60;;
11123;SDS011;5616;42.692;23.312;2022-10-16T13:51:12;2.93;;;2.43;;
11123;SDS011;5616;42.692;23.312;2022-10-16T13:53:40;3.40;;;2.70;;
11123;SDS011;5616;42.692;23.312;2022-10-16T13:56:09;4.80;;;2.20;;
11123;SDS011;5616;42.692;23.312;2022-10-16T13:58:38;2.63;;;1.93;;
11123;SDS011;5616;42.692;23.312;2022-10-16T14:01:05;3.30;;;2.43;;
11123;SDS011;5616;42.692;23.312;2022-10-16T14:03:44;2.70;;;2.33;;
11123;SDS011;5616;42.692;23.312;2022-10-16T14:06:12;4.90;;;2.60;;
11123;SDS011;5616;42.692;23.312;2022-10-16T14:08:43;3.80;;;2.30;;
11123;SDS011;5616;42.692;23.312;2022-10-16T14:11:12;2.77;;;2.23;;
11123;SDS011;5616;42.692;23.312;2022-10-16T14:13:39;4.70;;;2.60;;
11123;SDS011;5616;42.692;23.312;2022-10-16T14:16:10;5.17;;;2.70;;
11123;SDS011;5616;42.692;23.312;2022-10-16T14:18:44;3.90;;;2.30;;
11123;SDS011;5616;42.692;23.312;2022-10-16T14:21:17;3.20;;;2.57;;
11123;SDS011;5616;42.692;23.312;2022-10-16T14:23:45;2.40;;;2.00;;
11123;SDS011;5616;42.692;23.312;2022-10-16T14:26:12;2.17;;;1.97;;
11123;SDS011;5616;42.692;23.312;2022-10-16T14:28:41;3.30;;;2.27;;
11123;SDS011;5616;42.692;23.312;2022-10-16T14:31:28;3.23;;;2.20;;
11123;SDS011;5616;42.692;23.312;2022-10-16T14:33:58;3.47;;;2.30;;
11123;SDS011;5616;42.692;23.312;2022-10-16T14:36:26;2.73;;;2.23;;
11123;SDS011;5616;42.692;23.312;2022-10-16T14:38:57;4.27;;;2.60;;
11123;SDS011;5616;42.692;23.312;2022-10-16T14:41:27;5.40;;;2.63;;
11123;SDS011;5616;42.692;23.312;2022-10-16T14:43:56;8.83;;;3.10;;
11123;SDS011;5616;42.692;23.312;2022-10-16T14:46:31;5.67;;;3.93;;
11123;SDS011;5616;42.692;23.312;2022-10-16T14:49:03;5.67;;;3.60;;
11123;SDS011;5616;42.692;23.312;2022-10-16T14:51:41;5.83;;;2.80;;
11123;SDS011;5616;42.692;23.312;2022-10-16T14:54:10;5.10;;;2.57;;
11123;SDS011;5616;42.692;23.312;2022-10-16T14:56:42;4.13;;;2.50;;
11123;SDS011;5616;42.692;23.312;2022-10-16T14:59:13;4.27;;;2.73;;
11123;SDS011;5616;42.692;23.312;2022-10-16T15:01:42;4.97;;;3.60;;
11123;SDS011;5616;42.692;23.312;2022-10-16T15:04:11;4.30;;;2.90;;
11123;SDS011;5616;42.692;23.312;2022-10-16T15:06:39;5.07;;;2.80;;
11123;SDS011;5616;42.692;23.312;2022-10-16T15:09:06;3.37;;;2.60;;
11123;SDS011;5616;42.692;23.312;2022-10-16T15:11:33;4.23;;;2.50;;
11123;SDS011;5616;42.692;23.312;2022-10-16T15:14:00;4.30;;;2.87;;